Terminal Aerodrome Forecast
Issued by NWS

Home | Current Version | Previous Version | Text Only | Print | Product List | Glossary On
Versions: 1 2 3 4 5 6 7 8 9 10 11 12 13 14 15
000
FTUS46 KSEW 131720
TAFHQM
TAF
KHQM 131720Z 1318/1418 08005KT 5SM BR SKC
     FM131900 08005KT P6SM SCT250
     FM141100 08008KT 2SM BR SCT001
      TEMPO 1412/1416 1/2SM FG OVC001=

USA.gov is the U.S. government's official web portal to all federal, state and local government web resources and services.